createdAt,value
2022-09-01T00:00:03.286Z,50.70
2022-09-01T00:02:33.970Z,50.66
2022-09-01T00:05:04.530Z,50.88
2022-09-01T00:07:32.064Z,50.87
2022-09-01T00:10:00.484Z,51.09
2022-09-01T00:12:29.415Z,51.15
2022-09-01T00:14:57.139Z,51.08
2022-09-01T00:17:25.208Z,51.19
2022-09-01T00:19:53.367Z,51.35
2022-09-01T00:22:20.870Z,51.53
2022-09-01T00:24:48.876Z,51.48
2022-09-01T00:27:17.360Z,51.41
2022-09-01T00:29:45.600Z,51.71
2022-09-01T00:32:13.789Z,51.63
2022-09-01T00:34:41.764Z,51.69
2022-09-01T00:37:09.372Z,51.82
2022-09-01T00:39:36.825Z,51.92
2022-09-01T00:42:05.868Z,52.15
2022-09-01T00:44:34.271Z,52.35
2022-09-01T00:47:02.133Z,52.49
2022-09-01T00:49:35.725Z,52.45
2022-09-01T00:52:09.721Z,52.54
2022-09-01T00:54:42.736Z,52.71
2022-09-01T00:57:10.900Z,52.72
2022-09-01T00:59:50.400Z,52.89
2022-09-01T01:02:18.075Z,53.07
2022-09-01T01:04:46.311Z,53.17
2022-09-01T01:07:15.924Z,53.35
2022-09-01T01:09:45.387Z,53.36
2022-09-01T01:12:18.253Z,53.44
2022-09-01T01:14:50.896Z,53.45
2022-09-01T01:17:22.099Z,53.71
2022-09-01T01:20:13.885Z,53.69
2022-09-01T01:23:03.468Z,53.74
2022-09-01T01:25:30.789Z,53.91
2022-09-01T01:28:18.943Z,53.95
2022-09-01T01:31:01.372Z,54.31
2022-09-01T01:33:42.949Z,54.36
2022-09-01T01:36:19.304Z,54.53
2022-09-01T01:38:49.194Z,54.54
2022-09-01T01:41:19.788Z,54.57
2022-09-01T01:43:51.119Z,54.74
2022-09-01T01:46:19.272Z,54.73
2022-09-01T01:48:48.664Z,54.60
2022-09-01T01:51:21.153Z,54.55
2022-09-01T01:53:52.703Z,54.55
2022-09-01T01:56:25.483Z,54.41
2022-09-01T01:58:56.406Z,54.31
2022-09-01T02:01:28.742Z,54.22
2022-09-01T02:03:57.815Z,54.83
2022-09-01T02:06:28.516Z,56.71
2022-09-01T02:08:58.248Z,55.28
2022-09-01T02:11:26.368Z,54.92
2022-09-01T02:13:57.143Z,54.97
2022-09-01T02:16:31.825Z,55.54
2022-09-01T02:19:01.777Z,55.73
2022-09-01T02:21:30.025Z,55.69
2022-09-01T02:24:01.156Z,57.34
2022-09-01T02:26:38.603Z,59.95
2022-09-01T02:29:09.931Z,60.39
2022-09-01T02:31:41.956Z,62.40
2022-09-01T02:34:13.893Z,63.92
2022-09-01T02:36:47.969Z,67.31
2022-09-01T02:39:18.902Z,70.01
2022-09-01T02:41:47.272Z,74.07
2022-09-01T02:44:14.968Z,75.62
2022-09-01T02:46:44.614Z,74.31
2022-09-01T02:49:17.581Z,75.59
2022-09-01T02:51:48.916Z,75.44
2022-09-01T02:54:17.556Z,76.20
2022-09-01T02:56:48.064Z,75.95
2022-09-01T02:59:18.048Z,78.86
2022-09-01T03:01:46.891Z,79.78
2022-09-01T03:04:14.804Z,79.90
2022-09-01T03:06:42.588Z,80.23
2022-09-01T03:09:17.224Z,81.04
2022-09-01T03:11:49.364Z,80.19
2022-09-01T03:14:17.324Z,82.15
2022-09-01T03:16:45.300Z,82.29
2022-09-01T03:19:14.453Z,85.06
2022-09-01T03:21:44.934Z,86.93
2022-09-01T03:24:16.779Z,88.63
2022-09-01T03:26:49.909Z,89.86
2022-09-01T03:29:18.999Z,90.40
2022-09-01T03:31:47.181Z,90.55
2022-09-01T03:34:16.444Z,91.60
2022-09-01T03:36:50.441Z,91.73
2022-09-01T03:39:19.773Z,92.51
2022-09-01T03:41:47.749Z,94.20
2022-09-01T03:44:16.416Z,94.49
2022-09-01T03:46:44.794Z,92.94
2022-09-01T03:49:15.410Z,92.03
2022-09-01T03:51:44.972Z,91.42
2022-09-01T03:54:13.788Z,90.75
2022-09-01T03:56:43.076Z,92.41
2022-09-01T03:59:17.126Z,91.48
2022-09-01T04:01:46.494Z,93.36
2022-09-01T04:04:15.358Z,94.83
2022-09-01T04:06:44.819Z,95.30
2022-09-01T04:09:14.062Z,94.59
2022-09-01T04:11:46.249Z,95.54
2022-09-01T04:14:15.115Z,97.07
2022-09-01T04:17:02.785Z,95.44
2022-09-01T04:19:36.642Z,95.88
2022-09-01T04:22:05.447Z,96.57
2022-09-01T04:24:34.807Z,96.01
2022-09-01T04:27:03.277Z,96.67
2022-09-01T04:29:32.819Z,96.45
2022-09-01T04:32:05.552Z,95.69
2022-09-01T04:34:39.885Z,95.44
2022-09-01T04:37:18.771Z,95.82
2022-09-01T04:39:55.782Z,94.22
2022-09-01T04:42:29.426Z,94.83
2022-09-01T04:45:02.472Z,95.48
2022-09-01T04:47:41.973Z,94.64
2022-09-01T04:50:14.914Z,94.95
2022-09-01T04:52:45.294Z,94.95
2022-09-01T04:55:18.655Z,95.17
2022-09-01T04:57:49.212Z,95.89
2022-09-01T05:00:24.298Z,95.24
2022-09-01T05:02:55.709Z,94.76
2022-09-01T05:05:25.362Z,93.79
2022-09-01T05:07:55.338Z,92.61
2022-09-01T05:10:29.165Z,94.99
2022-09-01T05:12:57.875Z,92.83
2022-09-01T05:15:25.411Z,92.76
2022-09-01T05:17:58.316Z,92.37
2022-09-01T05:20:30.166Z,93.90
2022-09-01T05:22:57.664Z,92.57
2022-09-01T05:25:27.102Z,92.74
2022-09-01T05:27:56.841Z,93.06
2022-09-01T05:30:28.597Z,93.43
2022-09-01T05:32:56.611Z,92.89
2022-09-01T05:35:32.477Z,93.92
2022-09-01T05:38:01.318Z,93.15
2022-09-01T05:40:28.930Z,92.13
2022-09-01T05:42:58.414Z,92.91
2022-09-01T05:45:26.779Z,93.26
2022-09-01T05:47:54.973Z,93.52
2022-09-01T05:50:22.812Z,94.44
2022-09-01T05:52:51.118Z,94.24
2022-09-01T05:55:18.691Z,95.51
2022-09-01T05:57:48.106Z,95.14
2022-09-01T06:00:18.096Z,95.99
2022-09-01T06:02:47.221Z,95.96
2022-09-01T06:05:15.887Z,95.93
2022-09-01T06:07:44.474Z,95.70
2022-09-01T06:10:16.080Z,96.06
2022-09-01T06:12:45.664Z,93.18
2022-09-01T06:15:18.493Z,94.26
2022-09-01T06:17:47.143Z,94.71
2022-09-01T06:20:18.197Z,94.89
2022-09-01T06:22:47.467Z,93.94
2022-09-01T06:25:18.572Z,93.53
2022-09-01T06:27:48.230Z,94.54
2022-09-01T06:30:23.871Z,93.12
2022-09-01T06:32:53.947Z,94.01
2022-09-01T06:35:25.137Z,93.21
2022-09-01T06:37:53.048Z,93.54
2022-09-01T06:40:21.673Z,94.13
2022-09-01T06:42:52.391Z,93.19
2022-09-01T06:45:23.319Z,93.69
2022-09-01T06:47:57.674Z,93.56
2022-09-01T06:53:45.011Z,93.41
2022-09-01T06:56:10.145Z,93.48
2022-09-01T06:58:39.341Z,93.98
2022-09-01T07:01:16.119Z,93.35
2022-09-01T07:03:45.190Z,94.26
2022-09-01T07:06:59.112Z,94.54
2022-09-01T07:09:22.191Z,95.10
2022-09-01T07:17:32.692Z,96.09
2022-09-01T07:23:06.273Z,94.33
2022-09-01T07:26:01.069Z,94.73
2022-09-01T07:28:37.605Z,93.84
2022-09-01T07:39:51.559Z,93.61
2022-09-01T07:45:32.396Z,94.07
2022-09-01T07:48:03.485Z,95.08
2022-09-01T07:51:35.093Z,94.00
2022-09-01T07:53:36.118Z,95.25
2022-09-01T07:56:10.585Z,95.28
2022-09-01T07:58:40.357Z,95.39
2022-09-01T08:01:10.153Z,94.69
2022-09-01T08:03:39.972Z,94.24
2022-09-01T08:06:11.494Z,93.61
2022-09-01T08:08:40.456Z,92.41
2022-09-01T08:11:09.055Z,91.67
2022-09-01T08:13:42.023Z,91.06
2022-09-01T08:16:18.757Z,90.68
2022-09-01T08:18:49.040Z,89.51
2022-09-01T08:21:23.398Z,90.62
2022-09-01T08:23:55.679Z,89.58
2022-09-01T08:26:27.135Z,89.90
2022-09-01T08:28:56.396Z,89.08
2022-09-01T08:31:30.778Z,87.73
2022-09-01T08:34:00.066Z,89.16
2022-09-01T08:36:28.477Z,88.97
2022-09-01T08:38:56.035Z,87.92
2022-09-01T08:41:35.667Z,87.72
2022-09-01T08:44:22.400Z,88.84
2022-09-01T08:46:57.946Z,86.70
2022-09-01T08:49:27.628Z,84.45
2022-09-01T08:52:35.411Z,86.38
2022-09-01T08:55:27.413Z,86.50
2022-09-01T08:57:59.846Z,82.58
2022-09-01T09:00:39.491Z,83.92
2022-09-01T09:03:14.063Z,85.17
2022-09-01T09:06:08.772Z,81.35
2022-09-01T09:08:58.067Z,80.04
2022-09-01T09:11:45.951Z,79.69
2022-09-01T09:14:43.187Z,78.89
2022-09-01T09:17:11.952Z,79.25
2022-09-01T09:19:42.585Z,78.74
2022-09-01T09:22:13.095Z,78.12
2022-09-01T09:24:52.593Z,78.69
2022-09-01T09:27:30.859Z,76.55
2022-09-01T09:30:04.239Z,75.43
2022-09-01T09:33:30.529Z,73.01
2022-09-01T09:35:46.023Z,74.32
2022-09-01T09:38:18.828Z,73.81
2022-09-01T09:41:25.715Z,73.60
2022-09-01T09:44:16.185Z,72.77
2022-09-01T09:46:45.972Z,71.97
2022-09-01T09:49:36.310Z,71.21
2022-09-01T09:52:08.710Z,73.00
2022-09-01T09:54:57.310Z,73.16
2022-09-01T09:57:25.953Z,70.99
2022-09-01T10:03:44.757Z,71.19
2022-09-01T10:06:30.200Z,70.31
2022-09-01T10:08:59.468Z,70.13
2022-09-01T10:11:35.540Z,69.93
2022-09-01T10:14:52.218Z,69.81
2022-09-01T10:17:27.349Z,68.58
2022-09-01T10:20:11.404Z,68.58
2022-09-01T10:22:41.339Z,68.80
2022-09-01T10:25:23.483Z,68.59
2022-09-01T10:27:58.340Z,67.79
2022-09-01T10:30:31.426Z,68.03
2022-09-01T10:33:11.687Z,68.06
2022-09-01T10:35:47.170Z,69.41
2022-09-01T10:38:19.136Z,68.10
2022-09-01T10:41:07.889Z,68.51
2022-09-01T10:43:45.125Z,68.86
2022-09-01T10:46:40.748Z,69.75
2022-09-01T10:49:38.901Z,68.36
2022-09-01T10:52:12.912Z,68.10
2022-09-01T10:54:51.298Z,67.57
2022-09-01T10:57:31.346Z,67.05
2022-09-01T11:00:36.837Z,66.93
2022-09-01T11:03:31.481Z,67.04
2022-09-01T11:06:12.371Z,66.65
2022-09-01T11:08:46.715Z,66.71
2022-09-01T11:11:49.352Z,66.31
2022-09-01T11:14:20.871Z,66.27
2022-09-01T11:17:17.387Z,66.74
2022-09-01T11:20:09.215Z,63.50
2022-09-01T11:23:19.959Z,64.49
2022-09-01T11:26:20.357Z,64.25
2022-09-01T11:28:48.320Z,65.06
2022-09-01T11:31:21.589Z,62.62
2022-09-01T11:34:13.139Z,64.37
2022-09-01T11:36:45.900Z,63.11
2022-09-01T11:39:20.788Z,64.03
2022-09-01T11:42:04.321Z,66.44
2022-09-01T11:44:55.109Z,66.54
2022-09-01T11:47:38.598Z,63.62
2022-09-01T11:50:16.968Z,64.56
2022-09-01T11:53:01.262Z,65.74
2022-09-01T11:55:36.609Z,64.42
2022-09-01T11:58:04.951Z,64.31
2022-09-01T12:00:40.536Z,65.05
2022-09-01T12:03:26.230Z,63.38
2022-09-01T12:06:01.698Z,63.95
2022-09-01T12:08:33.155Z,62.88
2022-09-01T12:11:13.503Z,62.57
2022-09-01T12:13:53.908Z,62.28
2022-09-01T12:16:22.302Z,62.82
2022-09-01T12:18:53.288Z,63.03
2022-09-01T12:21:32.768Z,63.81
2022-09-01T12:24:17.660Z,63.50
2022-09-01T12:26:48.305Z,63.54
2022-09-01T12:29:17.729Z,62.38
2022-09-01T12:31:48.665Z,61.83
2022-09-01T12:34:34.392Z,62.76
2022-09-01T12:37:16.390Z,62.34
2022-09-01T12:39:49.815Z,61.70
2022-09-01T12:42:20.206Z,62.52
2022-09-01T12:44:54.172Z,61.76
2022-09-01T12:47:33.635Z,61.16
2022-09-01T12:50:07.728Z,62.29
2022-09-01T12:52:44.953Z,61.75
2022-09-01T12:58:09.848Z,61.82
2022-09-01T13:00:56.155Z,61.64
2022-09-01T13:03:24.050Z,62.44
2022-09-01T13:05:57.737Z,61.72
2022-09-01T13:08:33.004Z,61.88
2022-09-01T13:11:05.800Z,62.50
2022-09-01T13:13:35.947Z,62.10
2022-09-01T13:16:12.839Z,62.65
2022-09-01T13:21:32.155Z,62.36
2022-09-01T13:23:59.666Z,62.58
2022-09-01T13:26:27.611Z,61.01
2022-09-01T13:28:55.343Z,63.19
2022-09-01T13:31:31.478Z,61.56
2022-09-01T13:34:22.627Z,62.52
2022-09-01T13:36:51.733Z,61.34
2022-09-01T13:39:22.744Z,62.22
2022-09-01T13:41:50.776Z,62.88
2022-09-01T13:44:18.948Z,60.01
2022-09-01T13:49:44.573Z,61.17
2022-09-01T13:52:22.845Z,61.64
2022-09-01T13:54:50.286Z,62.43
2022-09-01T13:57:17.883Z,61.40
2022-09-01T13:59:45.624Z,60.92
2022-09-01T14:02:13.259Z,61.37
2022-09-01T14:04:41.443Z,63.99
2022-09-01T14:08:43.465Z,59.49
2022-09-01T14:11:18.044Z,59.49
2022-09-01T14:13:46.456Z,61.30
2022-09-01T14:16:15.206Z,60.62
2022-09-01T14:18:42.943Z,61.15
2022-09-01T14:21:13.534Z,61.88
2022-09-01T14:23:42.583Z,60.49
2022-09-01T14:26:11.711Z,61.29
2022-09-01T14:28:41.147Z,61.06
2022-09-01T14:31:10.580Z,59.84
2022-09-01T14:33:39.575Z,60.26
2022-09-01T14:36:11.015Z,61.10
2022-09-01T14:38:42.336Z,60.43
2022-09-01T14:41:14.827Z,59.87
2022-09-01T14:43:45.392Z,59.95
2022-09-01T14:46:13.283Z,59.70
2022-09-01T14:48:40.902Z,59.66
2022-09-01T14:51:09.908Z,59.61
2022-09-01T14:53:37.473Z,60.44
2022-09-01T14:56:05.231Z,60.79
2022-09-01T14:58:33.208Z,60.06
2022-09-01T15:01:23.406Z,60.00
2022-09-01T15:03:52.977Z,61.04
2022-09-01T15:06:22.241Z,60.19
2022-09-01T15:08:50.168Z,62.52
2022-09-01T15:11:21.021Z,61.35
2022-09-01T15:13:52.561Z,60.49
2022-09-01T15:16:23.573Z,60.92
2022-09-01T15:18:52.172Z,60.60
2022-09-01T15:21:22.248Z,60.26
2022-09-01T15:23:50.910Z,59.76
2022-09-01T15:26:18.573Z,60.01
2022-09-01T15:28:47.942Z,60.50
2022-09-01T15:31:18.209Z,60.01
2022-09-01T15:33:47.280Z,60.46
2022-09-01T15:36:21.204Z,60.18
2022-09-01T15:38:49.183Z,62.21
2022-09-01T15:41:23.144Z,60.72
2022-09-01T15:43:51.911Z,59.37
2022-09-01T15:46:20.394Z,60.33
2022-09-01T15:48:48.312Z,58.44
2022-09-01T15:51:22.231Z,59.19
2022-09-01T15:53:51.891Z,60.44
2022-09-01T15:56:20.285Z,60.40
2022-09-01T15:59:04.668Z,61.19
2022-09-01T16:01:36.544Z,63.12
2022-09-01T16:04:06.356Z,61.82
2022-09-01T16:06:35.149Z,61.24
2022-09-01T16:09:02.679Z,61.66
2022-09-01T16:11:30.538Z,62.40
2022-09-01T16:13:58.580Z,61.46
2022-09-01T16:16:32.176Z,61.02
2022-09-01T16:19:21.788Z,63.62
2022-09-01T16:22:03.192Z,64.80
2022-09-01T16:24:39.559Z,62.55
2022-09-01T16:27:10.499Z,63.21
2022-09-01T16:29:49.310Z,63.12
2022-09-01T16:32:19.906Z,63.92
2022-09-01T16:34:48.293Z,63.38
2022-09-01T16:37:24.424Z,63.98
2022-09-01T16:40:19.978Z,64.99
2022-09-01T16:43:00.443Z,64.78
2022-09-01T16:46:03.620Z,63.46
2022-09-01T16:49:28.407Z,63.97
2022-09-01T16:52:05.396Z,63.77
2022-09-01T16:54:51.395Z,64.79
2022-09-01T16:57:42.497Z,66.26
2022-09-01T17:00:14.145Z,68.95
2022-09-01T17:02:59.730Z,71.18
2022-09-01T17:05:34.243Z,72.87
2022-09-01T17:08:21.159Z,74.54
2022-09-01T17:11:09.625Z,76.39
2022-09-01T17:13:47.486Z,76.90
2022-09-01T17:16:38.605Z,77.42
2022-09-01T17:19:14.769Z,78.23
2022-09-01T17:21:48.947Z,78.43
2022-09-01T17:24:25.987Z,77.97
2022-09-01T17:27:05.079Z,78.43
2022-09-01T17:29:41.030Z,78.34
2022-09-01T17:32:17.410Z,79.16
2022-09-01T17:35:15.125Z,79.05
2022-09-01T17:38:06.808Z,79.05
2022-09-01T17:40:52.975Z,79.16
2022-09-01T17:43:45.598Z,79.58
2022-09-01T17:46:20.213Z,79.50
2022-09-01T17:49:00.651Z,79.81
2022-09-01T17:51:48.224Z,79.57
2022-09-01T17:54:30.753Z,78.84
2022-09-01T17:57:10.946Z,79.40
2022-09-01T18:00:01.583Z,79.52
2022-09-01T18:02:49.513Z,79.92
2022-09-01T18:05:20.076Z,78.96
2022-09-01T18:07:55.074Z,79.94
2022-09-01T18:10:49.227Z,79.88
2022-09-01T18:13:49.141Z,78.31
2022-09-01T18:16:17.090Z,78.62
2022-09-01T18:18:46.834Z,78.46
2022-09-01T18:21:14.748Z,78.66
2022-09-01T18:23:44.967Z,78.83
2022-09-01T18:26:22.069Z,78.55
2022-09-01T18:28:53.975Z,78.54
2022-09-01T18:31:33.439Z,78.01
2022-09-01T18:34:21.540Z,77.95
2022-09-01T18:37:10.483Z,78.35
2022-09-01T18:39:50.669Z,78.04
2022-09-01T18:42:27.636Z,78.39
2022-09-01T18:45:07.695Z,78.16
2022-09-01T18:47:42.506Z,77.97
2022-09-01T18:50:16.399Z,78.64
2022-09-01T18:53:22.855Z,78.45
2022-09-01T18:56:08.700Z,78.05
2022-09-01T18:58:50.881Z,78.78
2022-09-01T19:01:59.638Z,77.59
2022-09-01T19:04:57.865Z,77.97
2022-09-01T19:07:40.624Z,78.11
2022-09-01T19:10:24.451Z,77.26
2022-09-01T19:13:18.801Z,78.12
2022-09-01T19:16:31.067Z,78.20
2022-09-01T19:18:58.875Z,76.88
2022-09-01T19:21:33.979Z,76.77
2022-09-01T19:24:17.151Z,76.59
2022-09-01T19:26:48.772Z,75.33
2022-09-01T19:29:27.228Z,75.42
2022-09-01T19:32:01.920Z,74.55
2022-09-01T19:34:46.904Z,75.09
2022-09-01T19:37:15.106Z,74.75
2022-09-01T19:39:47.356Z,73.47
2022-09-01T19:42:28.900Z,73.28
2022-09-01T19:45:15.228Z,73.71
2022-09-01T19:47:55.751Z,72.71
2022-09-01T19:50:35.887Z,74.34
2022-09-01T19:53:58.115Z,73.13
2022-09-01T19:56:36.399Z,73.62
2022-09-01T19:59:25.197Z,72.17
2022-09-01T20:02:00.660Z,73.12
2022-09-01T20:04:41.700Z,72.43
2022-09-01T20:07:17.219Z,71.71
2022-09-01T20:10:00.989Z,72.68
2022-09-01T20:12:39.472Z,72.61
2022-09-01T20:15:15.860Z,72.00
2022-09-01T20:17:50.215Z,72.45
2022-09-01T20:20:24.542Z,71.22
2022-09-01T20:23:03.727Z,71.58
2022-09-01T20:25:48.524Z,70.91
2022-09-01T20:28:34.980Z,70.75
2022-09-01T20:31:09.079Z,71.04
2022-09-01T20:33:44.153Z,70.99
2022-09-01T20:36:19.203Z,70.79
2022-09-01T20:39:16.211Z,69.93
2022-09-01T20:42:07.306Z,69.49
2022-09-01T20:44:50.908Z,68.71
2022-09-01T20:47:20.431Z,68.02
2022-09-01T20:49:48.667Z,68.03
2022-09-01T20:52:37.526Z,68.62
2022-09-01T20:55:14.547Z,69.01
2022-09-01T20:58:00.760Z,69.96
2022-09-01T21:00:30.351Z,69.56
2022-09-01T21:03:24.813Z,69.72
2022-09-01T21:06:26.031Z,69.98
2022-09-01T21:09:01.162Z,69.78
2022-09-01T21:11:45.905Z,69.51
2022-09-01T21:14:45.571Z,69.30
2022-09-01T21:17:35.375Z,69.33
2022-09-01T21:20:17.824Z,69.66
2022-09-01T21:22:45.656Z,69.67
2022-09-01T21:25:13.147Z,69.65
2022-09-01T21:27:52.597Z,70.09
2022-09-01T21:30:20.595Z,69.41
2022-09-01T21:32:48.669Z,69.59
2022-09-01T21:35:19.581Z,69.07
2022-09-01T21:37:47.513Z,69.25
2022-09-01T21:40:16.140Z,68.62
2022-09-01T21:42:58.656Z,68.81
2022-09-01T21:45:26.573Z,69.55
2022-09-01T21:47:54.570Z,69.45
2022-09-01T21:50:24.236Z,69.81
2022-09-01T21:52:52.089Z,69.21
2022-09-01T21:55:22.997Z,70.06
2022-09-01T21:57:51.977Z,69.70
2022-09-01T22:00:23.350Z,70.07
2022-09-01T22:02:51.325Z,69.88
2022-09-01T22:05:19.052Z,69.00
2022-09-01T22:07:47.680Z,67.24
2022-09-01T22:10:18.332Z,68.28
2022-09-01T22:12:48.086Z,67.97
2022-09-01T22:15:19.084Z,68.45
2022-09-01T22:17:47.337Z,67.95
2022-09-01T22:20:18.742Z,68.15
2022-09-01T22:22:46.667Z,68.24
2022-09-01T22:25:19.867Z,67.64
2022-09-01T22:27:47.855Z,65.71
2022-09-01T22:30:16.698Z,65.70
2022-09-01T22:32:45.284Z,65.00
2022-09-01T22:35:15.156Z,64.57
2022-09-01T22:37:43.023Z,64.16
2022-09-01T22:40:11.555Z,63.64
2022-09-01T22:42:39.660Z,63.08
2022-09-01T22:45:09.794Z,63.21
2022-09-01T22:47:38.592Z,63.46
2022-09-01T22:50:09.104Z,63.07
2022-09-01T22:52:36.807Z,61.31
2022-09-01T22:55:05.628Z,61.38
2022-09-01T22:57:33.456Z,59.71
2022-09-01T23:00:01.035Z,59.11
2022-09-01T23:02:30.267Z,59.47
2022-09-01T23:04:58.093Z,59.09
2022-09-01T23:07:25.655Z,59.27
2022-09-01T23:09:53.063Z,59.03
2022-09-01T23:12:20.823Z,58.65
2022-09-01T23:14:48.373Z,57.40
2022-09-01T23:17:15.871Z,58.39
2022-09-01T23:19:43.661Z,58.00
2022-09-01T23:22:11.119Z,57.49
2022-09-01T23:24:38.624Z,56.88
2022-09-01T23:27:06.422Z,56.90
2022-09-01T23:29:34.017Z,56.62
2022-09-01T23:32:01.686Z,56.84
2022-09-01T23:34:29.520Z,57.03
2022-09-01T23:36:56.993Z,56.97
2022-09-01T23:39:24.675Z,56.57
2022-09-01T23:41:52.448Z,56.18
2022-09-01T23:44:20.032Z,55.99
2022-09-01T23:46:47.518Z,56.80
2022-09-01T23:49:17.377Z,55.91
2022-09-01T23:51:47.028Z,56.78
2022-09-01T23:54:15.847Z,56.10
2022-09-01T23:56:43.321Z,55.86
2022-09-01T23:59:10.926Z,56.39
